createdAt,value
2023-11-18T00:01:26.924Z,18.90
2023-11-18T00:03:54.299Z,18.35
2023-11-18T00:06:20.968Z,18.52
2023-11-18T00:08:47.561Z,18.60
2023-11-18T00:11:14.525Z,18.38
2023-11-18T00:13:42.944Z,16.38
2023-11-18T00:16:13.328Z,17.88
2023-11-18T00:18:43.449Z,18.08
2023-11-18T00:21:10.257Z,18.55
2023-11-18T00:23:36.865Z,18.17
2023-11-18T00:26:03.557Z,18.00
2023-11-18T00:28:30.199Z,17.15
2023-11-18T00:30:56.864Z,18.08
2023-11-18T00:33:23.666Z,17.63
2023-11-18T00:35:50.231Z,18.20
2023-11-18T00:38:17.239Z,17.98
2023-11-18T00:40:43.792Z,17.70
2023-11-18T00:43:10.846Z,18.30
2023-11-18T00:45:37.486Z,19.15
2023-11-18T00:48:06.302Z,18.80
2023-11-18T00:50:34.414Z,18.15
2023-11-18T00:53:01.095Z,17.25
2023-11-18T00:55:27.925Z,18.98
2023-11-18T00:57:54.616Z,18.38
2023-11-18T01:00:23.211Z,18.90
2023-11-18T01:02:50.908Z,17.67
2023-11-18T01:05:17.699Z,17.85
2023-11-18T01:07:44.975Z,19.45
2023-11-18T01:10:12.232Z,19.80
2023-11-18T01:12:39.050Z,20.15
2023-11-18T01:15:06.285Z,19.45
2023-11-18T01:17:32.956Z,20.85
2023-11-18T01:20:00.327Z,19.42
2023-11-18T01:22:27.181Z,21.40
2023-11-18T01:24:53.783Z,20.20
2023-11-18T01:27:21.558Z,19.60
2023-11-18T01:29:48.221Z,20.48
2023-11-18T01:32:15.507Z,20.27
2023-11-18T01:34:44.549Z,19.10
2023-11-18T01:37:11.340Z,21.40
2023-11-18T01:39:37.924Z,21.13
2023-11-18T01:42:04.916Z,20.85
2023-11-18T01:44:31.801Z,21.27
2023-11-18T01:46:59.066Z,20.85
2023-11-18T01:49:28.514Z,20.63
2023-11-18T01:51:55.702Z,20.90
2023-11-18T01:54:22.965Z,20.75
2023-11-18T01:56:50.208Z,20.88
2023-11-18T01:59:20.177Z,21.98
2023-11-18T02:01:52.463Z,21.60
2023-11-18T02:04:21.294Z,20.98
2023-11-18T02:06:51.629Z,22.48
2023-11-18T02:09:19.143Z,20.42
2023-11-18T02:11:55.436Z,21.15
2023-11-18T02:14:24.992Z,21.10
2023-11-18T02:16:54.461Z,22.70
2023-11-18T02:19:22.954Z,22.65
2023-11-18T02:21:50.769Z,22.92
2023-11-18T02:24:32.000Z,21.92
2023-11-18T02:26:58.970Z,21.60
2023-11-18T02:29:27.300Z,21.80
2023-11-18T02:31:58.692Z,23.20
2023-11-18T02:34:28.548Z,22.25
2023-11-18T02:36:57.260Z,23.25
2023-11-18T02:39:29.856Z,22.15
2023-11-18T02:42:00.363Z,22.88
2023-11-18T02:44:27.447Z,23.70
2023-11-18T02:46:54.101Z,22.42
2023-11-18T02:49:20.758Z,23.00
2023-11-18T02:51:48.760Z,23.60
2023-11-18T02:54:17.463Z,22.30
2023-11-18T02:56:44.058Z,22.33
2023-11-18T02:59:11.334Z,22.77
2023-11-18T03:01:40.448Z,22.40
2023-11-18T03:04:07.363Z,23.23
2023-11-18T03:06:34.884Z,21.98
2023-11-18T03:09:02.236Z,21.58
2023-11-18T03:11:32.165Z,21.33
2023-11-18T03:13:59.010Z,22.58
2023-11-18T03:16:25.859Z,20.80
2023-11-18T03:18:52.821Z,20.85
2023-11-18T03:21:22.517Z,21.80
2023-11-18T03:23:49.098Z,22.33
2023-11-18T03:26:15.631Z,20.88
2023-11-18T03:28:42.180Z,20.30
2023-11-18T03:31:08.914Z,21.13
2023-11-18T03:33:35.659Z,20.13
2023-11-18T03:36:02.319Z,19.08
2023-11-18T03:38:29.888Z,19.55
2023-11-18T03:40:58.062Z,18.90
2023-11-18T03:43:24.697Z,17.67
2023-11-18T03:45:53.387Z,19.35
2023-11-18T03:48:21.178Z,18.85
2023-11-18T03:50:47.958Z,17.10
2023-11-18T03:53:14.569Z,17.02
2023-11-18T03:55:41.282Z,19.02
2023-11-18T03:58:10.172Z,18.40
2023-11-18T04:00:36.988Z,19.30
2023-11-18T04:03:03.665Z,18.38
2023-11-18T04:05:30.525Z,17.38
2023-11-18T04:07:57.359Z,17.35
2023-11-18T04:10:23.911Z,17.65
2023-11-18T04:12:50.488Z,18.55
2023-11-18T04:15:17.014Z,19.42
2023-11-18T04:17:45.356Z,18.30
2023-11-18T04:20:12.776Z,18.55
2023-11-18T04:22:41.042Z,20.38
2023-11-18T04:25:11.521Z,18.73
2023-11-18T04:27:38.668Z,20.38
2023-11-18T04:30:05.783Z,18.60
2023-11-18T04:32:35.812Z,19.35
2023-11-18T04:35:08.035Z,19.70
2023-11-18T04:37:38.165Z,20.35
2023-11-18T04:40:05.214Z,20.20
2023-11-18T04:42:32.672Z,19.63
2023-11-18T04:45:00.303Z,20.05
2023-11-18T04:47:28.113Z,19.00
2023-11-18T04:49:55.207Z,18.83
2023-11-18T04:52:22.031Z,15.50
2023-11-18T04:54:49.275Z,18.13
2023-11-18T04:57:16.135Z,17.95
2023-11-18T04:59:43.810Z,17.58
2023-11-18T05:02:10.492Z,18.38
2023-11-18T05:04:37.239Z,18.73
2023-11-18T05:07:05.042Z,18.50
2023-11-18T05:09:32.432Z,17.92
2023-11-18T05:11:59.935Z,17.20
2023-11-18T05:14:27.485Z,17.73
2023-11-18T05:16:54.838Z,15.90
2023-11-18T05:19:22.138Z,18.30
2023-11-18T05:21:50.885Z,17.00
2023-11-18T05:24:17.665Z,17.83
2023-11-18T05:26:44.365Z,17.75
2023-11-18T05:29:11.314Z,16.08
2023-11-18T05:31:38.562Z,16.63
2023-11-18T05:34:05.942Z,15.93
2023-11-18T05:36:38.660Z,16.13
2023-11-18T05:39:10.603Z,14.48
2023-11-18T05:41:40.594Z,13.07
2023-11-18T05:44:09.923Z,14.10
2023-11-18T05:46:36.972Z,13.88
2023-11-18T05:49:08.689Z,14.40
2023-11-18T05:51:36.320Z,15.23
2023-11-18T05:54:03.577Z,15.15
2023-11-18T05:56:30.204Z,14.40
2023-11-18T05:58:56.941Z,17.83
2023-11-18T06:01:23.937Z,16.20
2023-11-18T06:03:51.647Z,16.45
2023-11-18T06:06:22.138Z,16.50
2023-11-18T06:08:51.230Z,16.90
2023-11-18T06:11:20.355Z,15.93
2023-11-18T06:13:51.886Z,15.35
2023-11-18T06:16:21.251Z,14.55
2023-11-18T06:18:49.078Z,14.50
2023-11-18T06:21:16.292Z,12.23
2023-11-18T06:23:43.578Z,12.98
2023-11-18T06:26:12.886Z,15.63
2023-11-18T06:28:40.804Z,15.60
2023-11-18T06:31:09.871Z,14.93
2023-11-18T06:33:39.625Z,14.60
2023-11-18T06:36:06.548Z,15.05
2023-11-18T06:38:34.493Z,13.45
2023-11-18T06:41:06.760Z,14.88
2023-11-18T06:43:42.583Z,14.50
2023-11-18T06:46:13.959Z,14.63
2023-11-18T06:48:41.975Z,11.30
2023-11-18T06:51:09.214Z,14.57
2023-11-18T06:53:35.858Z,13.18
2023-11-18T06:56:02.714Z,13.07
2023-11-18T06:58:29.280Z,13.45
2023-11-18T07:00:56.902Z,13.68
2023-11-18T07:03:23.516Z,13.52
2023-11-18T07:05:50.268Z,14.80
2023-11-18T07:08:16.888Z,12.73
2023-11-18T07:10:43.498Z,12.73
2023-11-18T07:13:11.806Z,11.90
2023-11-18T07:15:38.370Z,14.05
2023-11-18T07:18:05.182Z,12.45
2023-11-18T07:20:31.914Z,11.20
2023-11-18T07:22:58.981Z,13.55
2023-11-18T07:25:25.614Z,15.50
2023-11-18T07:27:52.986Z,58.97
2023-11-18T07:30:21.153Z,13.30
2023-11-18T07:32:47.723Z,12.88
2023-11-18T07:35:14.482Z,12.73
2023-11-18T07:37:41.080Z,13.77
2023-11-18T07:40:09.435Z,12.95
2023-11-18T07:42:36.040Z,12.82
2023-11-18T07:45:05.572Z,11.85
2023-11-18T07:47:35.261Z,12.05
2023-11-18T07:50:05.740Z,12.05
2023-11-18T07:52:32.340Z,11.73
2023-11-18T07:54:58.882Z,11.27
2023-11-18T07:57:25.576Z,9.93
2023-11-18T07:59:54.170Z,11.43
2023-11-18T08:02:21.334Z,10.70
2023-11-18T08:04:48.105Z,10.57
2023-11-18T08:07:14.717Z,10.13
2023-11-18T08:09:42.522Z,10.05
2023-11-18T08:12:10.435Z,9.50
2023-11-18T08:14:37.280Z,9.38
2023-11-18T08:17:06.078Z,8.88
2023-11-18T08:19:35.392Z,9.38
2023-11-18T08:22:02.351Z,8.43
2023-11-18T08:24:30.455Z,8.20
2023-11-18T08:26:57.003Z,8.23
2023-11-18T08:29:25.426Z,8.52
2023-11-18T08:31:52.710Z,8.55
2023-11-18T08:34:19.978Z,7.93
2023-11-18T08:36:47.558Z,7.30
2023-11-18T08:39:17.556Z,7.03
2023-11-18T08:41:44.998Z,7.03
2023-11-18T08:44:22.238Z,7.20
2023-11-18T08:46:53.123Z,6.65
2023-11-18T08:49:22.886Z,6.70
2023-11-18T08:51:59.437Z,6.57
2023-11-18T08:54:37.855Z,6.45
2023-11-18T08:57:05.366Z,7.00
2023-11-18T08:59:32.257Z,6.05
2023-11-18T09:02:00.926Z,7.00
2023-11-18T09:04:28.647Z,6.82
2023-11-18T09:06:55.311Z,5.43
2023-11-18T09:09:28.601Z,5.53
2023-11-18T09:11:58.893Z,5.97
2023-11-18T09:14:26.610Z,6.47
2023-11-18T09:16:56.178Z,5.82
2023-11-18T09:19:22.846Z,5.25
2023-11-18T09:21:49.700Z,5.90
2023-11-18T09:24:20.714Z,5.38
2023-11-18T09:26:48.767Z,4.65
2023-11-18T09:29:18.934Z,5.60
2023-11-18T09:31:53.806Z,5.05
2023-11-18T09:34:28.041Z,4.57
2023-11-18T09:36:55.467Z,5.00
2023-11-18T09:39:38.385Z,6.13
2023-11-18T09:42:09.601Z,5.13
2023-11-18T09:44:38.870Z,5.38
2023-11-18T09:47:10.511Z,5.40
2023-11-18T09:49:41.320Z,6.03
2023-11-18T09:52:08.201Z,6.47
2023-11-18T09:54:42.695Z,5.70
2023-11-18T09:57:15.438Z,5.80
2023-11-18T10:00:00.953Z,5.57
2023-11-18T10:02:30.269Z,5.00
2023-11-18T10:05:01.579Z,5.90
2023-11-18T10:07:28.571Z,5.10
2023-11-18T10:09:58.259Z,6.00
2023-11-18T10:12:25.190Z,6.75
2023-11-18T10:14:53.315Z,6.25
2023-11-18T10:17:23.118Z,4.57
2023-11-18T10:20:01.112Z,4.32
2023-11-18T10:22:30.524Z,3.75
2023-11-18T10:24:57.678Z,4.00
2023-11-18T10:27:28.222Z,3.85
2023-11-18T10:30:20.561Z,4.18
2023-11-18T10:33:07.238Z,4.25
2023-11-18T10:38:03.018Z,3.05
2023-11-18T10:40:29.686Z,4.00
2023-11-18T10:42:56.903Z,4.05
2023-11-18T10:45:28.420Z,3.65
2023-11-18T10:47:57.234Z,3.47
2023-11-18T10:50:24.013Z,4.25
2023-11-18T10:52:50.664Z,3.60
2023-11-18T10:55:20.267Z,3.55
2023-11-18T10:57:46.900Z,4.07
2023-11-18T11:00:20.775Z,4.13
2023-11-18T11:02:51.394Z,3.90
2023-11-18T11:05:33.252Z,3.63
2023-11-18T11:08:01.117Z,4.05
2023-11-18T11:10:29.936Z,3.63
2023-11-18T11:12:56.716Z,4.22
2023-11-18T11:15:24.036Z,4.38
2023-11-18T11:17:57.032Z,4.25
2023-11-18T11:20:31.241Z,3.67
2023-11-18T11:23:09.712Z,3.85
2023-11-18T11:25:45.269Z,4.57
2023-11-18T11:28:16.660Z,4.88
2023-11-18T11:30:45.945Z,5.00
2023-11-18T11:33:33.865Z,4.65
2023-11-18T11:36:01.413Z,3.80
2023-11-18T11:38:29.946Z,4.57
2023-11-18T11:40:57.315Z,4.10
2023-11-18T11:43:25.924Z,4.38
2023-11-18T11:45:53.143Z,4.13
2023-11-18T11:48:38.166Z,3.70
2023-11-18T11:51:15.170Z,4.65
2023-11-18T11:54:05.180Z,4.28
2023-11-18T11:56:38.902Z,4.47
2023-11-18T11:59:06.106Z,4.25
2023-11-18T12:01:39.261Z,3.75
2023-11-18T12:04:11.564Z,3.72
2023-11-18T12:06:42.432Z,4.00
2023-11-18T12:09:09.924Z,3.28
2023-11-18T12:11:40.678Z,3.88
2023-11-18T12:14:14.661Z,3.90
2023-11-18T12:16:58.574Z,3.75
2023-11-18T12:19:38.182Z,3.95
2023-11-18T12:22:13.892Z,3.72
2023-11-18T12:24:40.977Z,3.17
2023-11-18T12:27:13.452Z,2.70
2023-11-18T12:29:44.589Z,2.95
2023-11-18T12:32:17.953Z,2.60
2023-11-18T12:34:51.015Z,2.65
2023-11-18T12:37:34.461Z,4.10
2023-11-18T12:40:14.271Z,2.60
2023-11-18T12:42:59.631Z,2.92
2023-11-18T12:45:26.184Z,3.65
2023-11-18T12:47:56.144Z,3.13
2023-11-18T12:50:29.635Z,2.97
2023-11-18T12:52:58.527Z,3.03
2023-11-18T12:55:27.491Z,2.83
2023-11-18T12:57:55.691Z,2.90
2023-11-18T13:00:28.203Z,2.53
2023-11-18T13:02:55.593Z,2.53
2023-11-18T13:05:22.461Z,2.47
2023-11-18T13:07:49.310Z,2.47
2023-11-18T13:10:16.665Z,2.60
2023-11-18T13:12:44.084Z,2.50
2023-11-18T13:15:10.778Z,2.72
2023-11-18T13:17:37.354Z,2.30
2023-11-18T13:20:19.133Z,2.83
2023-11-18T13:22:48.400Z,2.80
2023-11-18T13:25:15.971Z,2.50
2023-11-18T13:27:42.845Z,2.50
2023-11-18T13:30:14.181Z,3.03
2023-11-18T13:32:44.174Z,2.63
2023-11-18T13:35:19.807Z,2.58
2023-11-18T13:37:50.238Z,2.28
2023-11-18T13:40:19.409Z,2.53
2023-11-18T13:42:47.377Z,2.10
2023-11-18T13:45:24.049Z,2.03
2023-11-18T13:48:00.139Z,2.00
2023-11-18T13:50:27.979Z,2.10
2023-11-18T13:52:54.785Z,2.30
2023-11-18T13:55:28.652Z,1.63
2023-11-18T13:57:57.073Z,1.60
2023-11-18T14:00:24.449Z,1.20
2023-11-18T14:02:52.588Z,1.40
2023-11-18T14:05:20.578Z,1.40
2023-11-18T14:07:49.470Z,1.17
2023-11-18T14:10:16.448Z,1.05
2023-11-18T14:13:01.946Z,1.15
2023-11-18T14:15:28.633Z,0.95
2023-11-18T14:17:55.212Z,1.30
2023-11-18T14:20:23.614Z,1.70
2023-11-18T14:22:52.194Z,1.40
2023-11-18T14:25:19.965Z,1.67
2023-11-18T14:27:47.717Z,1.95
2023-11-18T14:30:14.597Z,2.08
2023-11-18T14:32:41.474Z,1.60
2023-11-18T14:35:10.880Z,1.73
2023-11-18T14:37:42.784Z,1.70
2023-11-18T14:40:16.262Z,1.60
2023-11-18T14:42:44.542Z,1.40
2023-11-18T14:45:13.203Z,1.98
2023-11-18T14:47:45.552Z,1.63
2023-11-18T14:50:21.627Z,1.40
2023-11-18T14:52:49.987Z,1.35
2023-11-18T14:55:18.377Z,1.55
2023-11-18T14:57:45.908Z,1.77
2023-11-18T15:00:28.384Z,1.50
2023-11-18T15:03:00.326Z,2.08
2023-11-18T15:05:28.347Z,2.20
2023-11-18T15:07:56.134Z,2.08
2023-11-18T15:10:24.194Z,1.83
2023-11-18T15:13:02.062Z,2.03
2023-11-18T15:15:33.098Z,1.65
2023-11-18T15:18:00.886Z,2.15
2023-11-18T15:20:27.768Z,2.10
2023-11-18T15:22:55.244Z,1.90
2023-11-18T15:25:21.855Z,2.17
2023-11-18T15:27:48.933Z,2.05
2023-11-18T15:30:17.306Z,2.45
2023-11-18T15:32:45.070Z,2.30
2023-11-18T15:35:12.120Z,1.98
2023-11-18T15:37:39.469Z,2.50
2023-11-18T15:40:14.149Z,2.33
2023-11-18T15:42:41.888Z,2.55
2023-11-18T15:45:18.528Z,2.40
2023-11-18T15:47:45.251Z,2.50
2023-11-18T15:50:19.742Z,2.70
2023-11-18T15:52:46.994Z,2.50
2023-11-18T15:55:16.682Z,2.17
2023-11-18T15:57:44.847Z,2.40
2023-11-18T16:00:21.422Z,2.67
2023-11-18T16:02:49.713Z,2.55
2023-11-18T16:05:18.619Z,2.80
2023-11-18T16:07:46.031Z,2.47
2023-11-18T16:10:19.170Z,3.30
2023-11-18T16:12:48.000Z,3.22
2023-11-18T16:15:15.169Z,3.08
2023-11-18T16:17:42.330Z,3.35
2023-11-18T16:20:10.686Z,3.20
2023-11-18T16:22:37.400Z,2.90
2023-11-18T16:25:05.225Z,2.75
2023-11-18T16:27:32.250Z,3.28
2023-11-18T16:29:58.890Z,3.42
2023-11-18T16:32:26.743Z,3.65
2023-11-18T16:34:53.473Z,3.40
2023-11-18T16:37:21.293Z,2.95
2023-11-18T16:39:50.881Z,3.03
2023-11-18T16:42:20.159Z,3.50
2023-11-18T16:44:49.345Z,2.92
2023-11-18T16:47:17.039Z,3.10
2023-11-18T16:49:51.499Z,2.97
2023-11-18T16:52:24.038Z,3.30
2023-11-18T16:54:50.884Z,3.45
2023-11-18T16:57:17.427Z,3.22
2023-11-18T16:59:44.177Z,3.65
2023-11-18T17:02:10.829Z,3.58
2023-11-18T17:04:38.186Z,4.10
2023-11-18T17:07:05.245Z,3.67
2023-11-18T17:09:32.678Z,5.00
2023-11-18T17:11:59.287Z,4.57
2023-11-18T17:14:26.013Z,8.18
2023-11-18T17:16:52.536Z,6.43
2023-11-18T17:19:19.119Z,6.13
2023-11-18T17:21:45.729Z,6.63
2023-11-18T17:24:12.413Z,7.97
2023-11-18T17:26:40.226Z,7.75
2023-11-18T17:29:07.703Z,8.30
2023-11-18T17:31:34.773Z,8.63
2023-11-18T17:34:05.456Z,9.23
2023-11-18T17:36:32.416Z,9.35
2023-11-18T17:38:59.100Z,10.02
2023-11-18T17:41:25.839Z,10.10
2023-11-18T17:43:52.555Z,9.77
2023-11-18T17:46:19.156Z,11.45
2023-11-18T17:48:45.899Z,10.73
2023-11-18T17:51:12.675Z,11.93
2023-11-18T17:53:40.413Z,10.63
2023-11-18T17:56:10.151Z,10.73
2023-11-18T17:58:38.869Z,11.43
2023-11-18T18:01:07.621Z,10.18
2023-11-18T18:03:34.340Z,8.63
2023-11-18T18:06:00.930Z,8.50
2023-11-18T18:08:27.747Z,9.93
2023-11-18T18:10:54.493Z,10.23
2023-11-18T18:13:22.017Z,7.85
2023-11-18T18:15:48.612Z,10.65
2023-11-18T18:18:15.222Z,11.73
2023-11-18T18:20:49.095Z,12.60
2023-11-18T18:23:16.653Z,12.25
2023-11-18T18:25:43.531Z,11.27
2023-11-18T18:28:10.205Z,11.40
2023-11-18T18:30:37.981Z,12.20
2023-11-18T18:33:05.773Z,13.23
2023-11-18T18:35:32.620Z,13.48
2023-11-18T18:37:59.286Z,14.02
2023-11-18T18:40:25.855Z,14.60
2023-11-18T18:42:53.079Z,14.15
2023-11-18T18:45:19.805Z,15.27
2023-11-18T18:47:46.416Z,16.83
2023-11-18T18:50:14.949Z,15.55
2023-11-18T18:52:41.630Z,13.68
2023-11-18T18:55:08.812Z,14.13
2023-11-18T18:57:35.370Z,14.25
2023-11-18T19:00:01.971Z,14.75
2023-11-18T19:02:31.721Z,15.00
2023-11-18T19:04:59.016Z,14.82
2023-11-18T19:07:29.914Z,15.75
2023-11-18T19:09:56.911Z,14.57
2023-11-18T19:12:23.625Z,15.07
2023-11-18T19:14:51.614Z,12.23
2023-11-18T19:17:18.292Z,13.30
2023-11-18T19:19:44.966Z,13.70
2023-11-18T19:22:11.702Z,13.43
2023-11-18T19:24:39.761Z,14.32
2023-11-18T19:27:10.709Z,14.40
2023-11-18T19:29:37.666Z,15.65
2023-11-18T19:32:04.284Z,11.85
2023-11-18T19:34:32.288Z,11.98
2023-11-18T19:36:58.768Z,10.70
2023-11-18T19:39:25.339Z,14.23
2023-11-18T19:41:51.822Z,13.35
2023-11-18T19:44:18.374Z,14.38
2023-11-18T19:46:50.906Z,12.40
2023-11-18T19:49:18.088Z,12.77
2023-11-18T19:51:46.374Z,12.85
2023-11-18T19:54:13.015Z,12.18
2023-11-18T19:56:39.691Z,12.45
2023-11-18T19:59:06.919Z,13.00
2023-11-18T20:01:34.102Z,12.57
2023-11-18T20:04:00.846Z,11.90
2023-11-18T20:06:27.418Z,12.75
2023-11-18T20:08:54.060Z,11.27
2023-11-18T20:11:20.646Z,11.77
2023-11-18T20:13:47.450Z,13.02
2023-11-18T20:16:14.052Z,12.85
2023-11-18T20:18:40.616Z,13.00
2023-11-18T20:21:07.432Z,12.10
2023-11-18T20:23:34.315Z,13.85
2023-11-18T20:26:01.077Z,13.88
2023-11-18T20:28:27.901Z,13.70
2023-11-18T20:30:57.604Z,13.38
2023-11-18T20:33:24.148Z,16.73
2023-11-18T20:35:50.815Z,14.52
2023-11-18T20:38:17.577Z,15.48
2023-11-18T20:40:44.790Z,16.92
2023-11-18T20:43:11.545Z,15.77
2023-11-18T20:45:40.483Z,15.07
2023-11-18T20:48:08.881Z,17.40
2023-11-18T20:50:36.707Z,16.85
2023-11-18T20:53:04.488Z,17.30
2023-11-18T20:55:31.073Z,15.82
2023-11-18T20:57:57.668Z,15.82
2023-11-18T21:00:24.654Z,17.33
2023-11-18T21:02:51.903Z,16.48
2023-11-18T21:05:21.032Z,15.48
2023-11-18T21:07:48.680Z,15.50
2023-11-18T21:10:17.285Z,13.75
2023-11-18T21:12:44.447Z,15.00
2023-11-18T21:15:13.383Z,15.20
2023-11-18T21:17:40.331Z,14.75
2023-11-18T21:20:07.968Z,13.00
2023-11-18T21:22:34.540Z,12.50
2023-11-18T21:25:02.074Z,11.98
2023-11-18T21:27:28.783Z,12.20
2023-11-18T21:29:55.337Z,11.80
2023-11-18T21:32:23.000Z,12.35
2023-11-18T21:34:49.645Z,11.13
2023-11-18T21:37:16.408Z,11.90
2023-11-18T21:39:43.197Z,10.23
2023-11-18T21:42:11.908Z,9.23
2023-11-18T21:44:39.235Z,10.27
2023-11-18T21:47:06.027Z,8.90
2023-11-18T21:49:33.140Z,9.30
2023-11-18T21:51:59.800Z,9.43
2023-11-18T21:54:27.246Z,7.88
2023-11-18T21:56:53.968Z,7.28
2023-11-18T21:59:20.535Z,7.97
2023-11-18T22:01:47.304Z,7.03
2023-11-18T22:04:14.073Z,7.32
2023-11-18T22:06:40.683Z,7.45
2023-11-18T22:09:07.312Z,7.45
2023-11-18T22:11:37.335Z,8.15
2023-11-18T22:14:04.515Z,7.63
2023-11-18T22:16:31.273Z,7.65
2023-11-18T22:18:57.964Z,6.60
2023-11-18T22:21:24.646Z,6.13
2023-11-18T22:23:51.194Z,6.18
2023-11-18T22:26:17.755Z,5.90
2023-11-18T22:28:46.006Z,6.35
2023-11-18T22:31:12.587Z,5.97
2023-11-18T22:33:39.480Z,6.00
2023-11-18T22:36:08.730Z,5.72
2023-11-18T22:38:35.591Z,5.45
2023-11-18T22:41:05.106Z,5.43
2023-11-18T22:43:31.830Z,5.55
2023-11-18T22:45:58.576Z,5.22
2023-11-18T22:48:26.855Z,5.85
2023-11-18T22:50:53.497Z,5.00
2023-11-18T22:53:21.325Z,6.28
2023-11-18T22:55:49.135Z,5.72
2023-11-18T22:58:15.883Z,6.03
2023-11-18T23:00:54.012Z,6.28
2023-11-18T23:03:21.152Z,6.70
2023-11-18T23:05:48.077Z,6.18
2023-11-18T23:08:18.229Z,6.57
2023-11-18T23:10:45.455Z,7.68
2023-11-18T23:13:14.195Z,6.32
2023-11-18T23:15:41.309Z,6.57
2023-11-18T23:18:08.622Z,5.45
2023-11-18T23:20:38.814Z,5.32
2023-11-18T23:23:06.333Z,5.50
2023-11-18T23:25:34.155Z,5.65
2023-11-18T23:28:02.423Z,5.25
2023-11-18T23:30:30.767Z,5.53
2023-11-18T23:32:57.519Z,5.95
2023-11-18T23:35:24.161Z,5.82
2023-11-18T23:37:52.259Z,5.85
2023-11-18T23:40:20.946Z,6.65
2023-11-18T23:42:48.959Z,6.05
2023-11-18T23:45:16.003Z,6.32
2023-11-18T23:47:43.450Z,5.55
2023-11-18T23:50:11.940Z,5.13
2023-11-18T23:52:38.555Z,5.43
2023-11-18T23:55:06.222Z,5.00
2023-11-18T23:57:32.846Z,4.97
